Time;durP1;ratioP1;P1;durP2;ratioP2;P2;SDS_P1;SDS_P2;PMS_P1;PMS_P2;Temp;Humidity;BMP_temperature;BMP_pressure;BME280_temperature;BME280_humidity;BME280_pressure;Samples;Min_cycle;Max_cycle;Signal;HPM_P1;HPM_P2
2022/04/08 00:00:37;;;;;;;3.13;1.20;;;14.60;67.20;;;;;;5979556;29;20053;-70
2022/04/08 00:03:39;;;;;;;1.80;0.90;;;14.60;67.30;;;;;;5984988;29;20037;-70
2022/04/08 00:06:39;;;;;;;0.95;0.75;;;14.60;67.30;;;;;;5969206;29;20038;-70
2022/04/08 00:09:40;;;;;;;1.52;0.80;;;14.60;67.50;;;;;;5976269;29;20372;-70
2022/04/08 00:12:41;;;;;;;1.50;0.85;;;14.60;67.50;;;;;;5995324;29;20352;-70
2022/04/08 00:15:43;;;;;;;1.20;0.80;;;14.60;67.50;;;;;;5995102;29;20042;-70
2022/04/08 00:18:45;;;;;;;0.65;0.65;;;14.60;67.50;;;;;;5993682;29;20105;-70
2022/04/08 00:21:48;;;;;;;1.35;0.75;;;14.60;67.50;;;;;;5995700;29;20120;-71
2022/04/08 00:24:50;;;;;;;1.13;0.60;;;14.60;68.40;;;;;;5997638;29;20060;-72
2022/04/08 00:27:51;;;;;;;2.22;0.73;;;14.60;67.50;;;;;;5994715;29;20194;-72
2022/04/08 00:30:53;;;;;;;0.98;0.70;;;14.60;67.50;;;;;;5993487;29;20043;-70
2022/04/08 00:33:54;;;;;;;1.67;0.82;;;14.60;67.50;;;;;;5995057;29;20046;-71
2022/04/08 00:36:55;;;;;;;0.55;0.55;;;14.60;67.50;;;;;;5996424;29;20483;-71
2022/04/08 00:39:57;;;;;;;1.40;0.85;;;14.60;67.40;;;;;;5993552;29;20039;-72
2022/04/08 00:42:57;;;;;;;3.38;0.57;;;14.60;67.30;;;;;;5998300;29;20035;-71
2022/04/08 00:45:58;;;;;;;2.45;0.93;;;14.60;67.30;;;;;;5996958;29;20042;-72
2022/04/08 00:48:59;;;;;;;1.77;0.70;;;14.60;67.30;;;;;;5998297;29;20475;-71
2022/04/08 00:52:00;;;;;;;0.65;0.50;;;14.60;67.30;;;;;;5985328;29;20107;-72
2022/04/08 00:55:06;;;;;;;1.02;0.45;;;14.60;67.20;;;;;;5995870;29;20422;-71
2022/04/08 00:58:07;;;;;;;0.77;0.40;;;14.60;67.30;;;;;;5999613;29;20473;-72
2022/04/08 01:01:08;;;;;;;1.77;0.50;;;14.60;67.30;;;;;;5997098;29;20469;-72
2022/04/08 01:04:09;;;;;;;1.75;0.50;;;14.60;67.20;;;;;;6000726;29;20046;-72
2022/04/08 01:07:10;;;;;;;1.55;0.57;;;14.60;67.20;;;;;;6003335;29;20483;-72
2022/04/08 01:10:11;;;;;;;5.97;0.85;;;14.60;67.10;;;;;;5999169;29;20049;-71
2022/04/08 01:13:11;;;;;;;1.67;0.70;;;14.50;67.10;;;;;;5999933;29;20034;-72
2022/04/08 01:16:12;;;;;;;1.60;0.65;;;14.60;67.30;;;;;;5981018;29;20033;-71
2022/04/08 01:19:14;;;;;;;0.80;0.60;;;14.60;67.30;;;;;;5997708;29;20051;-71
2022/04/08 01:22:16;;;;;;;0.63;0.47;;;14.60;67.20;;;;;;6000874;29;20145;-71
2022/04/08 01:25:17;;;;;;;1.55;0.60;;;14.60;67.10;;;;;;6001372;29;20129;-71
2022/04/08 01:28:18;;;;;;;7.07;0.82;;;14.50;67.10;;;;;;5996663;29;20035;-72
2022/04/08 01:31:19;;;;;;;0.45;0.40;;;14.50;67.10;;;;;;5997939;29;20069;-72
2022/04/08 01:34:20;;;;;;;0.43;0.30;;;14.50;67.10;;;;;;5999329;29;20039;-71
2022/04/08 01:37:21;;;;;;;1.17;0.60;;;14.50;67.00;;;;;;6001623;29;20510;-72
2022/04/08 01:40:22;;;;;;;1.63;0.32;;;14.50;67.00;;;;;;5997982;29;20132;-71
2022/04/08 01:43:23;;;;;;;2.55;0.40;;;14.50;67.00;;;;;;6001064;29;20105;-71
2022/04/08 01:46:24;;;;;;;0.60;0.35;;;14.50;66.90;;;;;;5999774;29;20046;-72
2022/04/08 01:49:25;;;;;;;1.17;0.40;;;14.40;66.80;;;;;;6001687;29;20066;-71
2022/04/08 01:52:26;;;;;;;0.80;0.45;;;14.40;66.80;;;;;;5997395;29;20367;-72
2022/04/08 01:55:27;;;;;;;1.20;0.52;;;14.40;66.70;;;;;;5998514;29;20450;-71
2022/04/08 01:58:28;;;;;;;0.45;0.28;;;14.40;66.60;;;;;;5997025;29;20091;-71
2022/04/08 02:01:30;;;;;;;2.25;0.30;;;14.40;66.60;;;;;;5999439;29;20042;-71
2022/04/08 02:04:31;;;;;;;1.05;0.40;;;14.40;66.60;;;;;;5995812;29;20050;-72
2022/04/08 02:07:32;;;;;;;0.22;0.15;;;14.40;66.70;;;;;;5996644;29;20103;-71
2022/04/08 02:10:33;;;;;;;0.43;0.30;;;14.40;66.50;;;;;;6021084;29;20124;-71
2022/04/08 02:13:34;;;;;;;3.95;0.80;;;14.40;66.40;;;;;;6004817;29;20105;-71
2022/04/08 02:16:35;;;;;;;2.90;0.30;;;14.50;66.40;;;;;;6005621;29;20080;-71
2022/04/08 02:19:36;;;;;;;1.15;0.47;;;14.50;66.30;;;;;;6022321;29;20468;-71
2022/04/08 02:22:37;;;;;;;0.32;0.30;;;14.50;66.10;;;;;;6022877;29;20050;-73
2022/04/08 02:25:38;;;;;;;0.20;0.20;;;14.50;65.90;;;;;;6020577;29;20045;-71
2022/04/08 02:28:39;;;;;;;0.80;0.45;;;14.60;65.90;;;;;;6005490;29;20130;-71
2022/04/08 02:31:39;;;;;;;0.80;0.43;;;14.60;65.80;;;;;;6021496;29;20468;-71
2022/04/08 02:34:40;;;;;;;0.10;0.10;;;14.60;65.80;;;;;;6018249;29;20041;-72
2022/04/08 02:37:41;;;;;;;1.35;0.32;;;14.60;65.90;;;;;;6009285;29;20034;-70
2022/04/08 02:40:42;;;;;;;0.47;0.30;;;14.60;65.70;;;;;;6001530;29;21228;-70
2022/04/08 02:43:43;;;;;;;0.55;0.30;;;14.60;65.80;;;;;;6001972;29;20101;-72
2022/04/08 02:46:44;;;;;;;0.43;0.38;;;14.60;65.70;;;;;;6006568;29;20460;-72
2022/04/08 02:49:45;;;;;;;0.57;0.40;;;14.60;65.80;;;;;;6003620;29;20464;-72
2022/04/08 02:52:46;;;;;;;1.10;0.47;;;14.60;65.90;;;;;;6021156;29;20042;-72
2022/04/08 02:55:47;;;;;;;0.68;0.40;;;14.60;65.80;;;;;;6018563;29;20043;-71
2022/04/08 02:58:48;;;;;;;1.75;0.60;;;14.60;65.90;;;;;;6018228;29;20372;-72
2022/04/08 03:01:49;;;;;;;1.05;0.30;;;14.60;65.70;;;;;;6018888;29;20355;-71
2022/04/08 03:04:51;;;;;;;0.50;0.38;;;14.70;65.70;;;;;;6020258;29;20029;-71
2022/04/08 03:07:52;;;;;;;2.15;0.70;;;14.70;65.70;;;;;;6006128;29;20037;-71
2022/04/08 03:10:54;;;;;;;0.50;0.32;;;14.70;65.60;;;;;;6003887;29;20087;-71
2022/04/08 03:14:00;;;;;;;0.70;0.35;;;14.70;65.60;;;;;;6005703;29;20106;-71
2022/04/08 03:17:01;;;;;;;0.40;0.30;;;14.70;65.60;;;;;;6002227;29;20113;-72
2022/04/08 03:20:03;;;;;;;1.33;0.30;;;14.70;65.60;;;;;;6003374;29;20041;-71
2022/04/08 03:23:04;;;;;;;0.50;0.38;;;14.70;65.50;;;;;;6003555;29;20128;-71
2022/04/08 03:26:05;;;;;;;0.43;0.22;;;14.70;65.50;;;;;;6021940;29;20046;-71
2022/04/08 03:29:06;;;;;;;2.13;0.45;;;14.80;65.50;;;;;;6019828;29;20034;-71
2022/04/08 03:32:08;;;;;;;1.27;0.43;;;14.70;65.50;;;;;;6004526;29;20034;-71
2022/04/08 03:35:09;;;;;;;0.73;0.43;;;14.80;65.70;;;;;;6005600;29;20287;-71
2022/04/08 03:38:10;;;;;;;0.80;0.40;;;14.80;65.50;;;;;;6003045;29;20073;-71
2022/04/08 03:41:11;;;;;;;0.65;0.40;;;14.80;65.50;;;;;;5991649;29;20037;-70
2022/04/08 03:44:12;;;;;;;1.92;0.35;;;14.80;65.40;;;;;;6020791;29;20045;-71
2022/04/08 03:47:13;;;;;;;0.85;0.35;;;14.80;65.30;;;;;;6020998;29;20117;-72
2022/04/08 03:50:14;;;;;;;0.40;0.28;;;14.80;65.40;;;;;;6020745;29;20433;-71
2022/04/08 03:53:15;;;;;;;1.48;0.93;;;14.80;65.40;;;;;;6020178;29;20045;-71
2022/04/08 03:56:16;;;;;;;2.17;0.50;;;14.80;65.50;;;;;;6004549;29;20097;-71
2022/04/08 03:59:17;;;;;;;0.93;0.40;;;14.80;65.50;;;;;;6001625;29;20072;-71
2022/04/08 04:02:19;;;;;;;5.40;0.47;;;14.90;65.50;;;;;;6002497;29;20058;-71
2022/04/08 04:05:20;;;;;;;2.25;0.75;;;14.90;65.50;;;;;;6006148;29;20492;-72
2022/04/08 04:08:20;;;;;;;1.15;0.60;;;14.90;65.40;;;;;;6015768;29;20056;-72
2022/04/08 04:11:21;;;;;;;4.15;1.00;;;14.90;65.30;;;;;;6001448;29;20471;-72
2022/04/08 04:14:22;;;;;;;4.57;0.70;;;14.90;65.30;;;;;;5987968;29;20057;-72
2022/04/08 04:17:24;;;;;;;0.95;0.65;;;14.90;65.40;;;;;;5972704;29;20058;-71
2022/04/08 04:20:24;;;;;;;2.63;1.30;;;14.90;65.40;;;;;;6002183;29;20049;-71
2022/04/08 04:23:25;;;;;;;1.55;0.75;;;14.80;65.50;;;;;;6001456;29;20043;-71
2022/04/08 04:26:26;;;;;;;5.60;0.90;;;14.80;65.70;;;;;;5993992;29;20038;-71
2022/04/08 04:29:27;;;;;;;3.08;0.77;;;14.80;65.80;;;;;;5977463;29;20049;-71
2022/04/08 04:32:28;;;;;;;3.00;0.95;;;14.80;65.80;;;;;;6010726;29;20098;-72
2022/04/08 04:35:29;;;;;;;1.80;0.90;;;14.80;65.80;;;;;;5992490;29;20038;-71
2022/04/08 04:38:30;;;;;;;2.88;1.17;;;14.80;65.80;;;;;;6011118;29;20090;-71
2022/04/08 04:41:32;;;;;;;1.45;0.80;;;14.80;65.90;;;;;;5993111;29;20179;-71
2022/04/08 04:44:34;;;;;;;1.98;0.80;;;14.80;65.90;;;;;;5994646;29;20041;-71
2022/04/08 04:47:36;;;;;;;1.77;0.80;;;14.80;65.90;;;;;;6010192;29;20062;-71
2022/04/08 04:50:38;;;;;;;0.98;0.70;;;14.80;65.70;;;;;;5995425;29;20408;-71
2022/04/08 04:53:39;;;;;;;1.60;0.90;;;14.90;65.70;;;;;;5987656;29;20046;-71
2022/04/08 04:56:40;;;;;;;0.65;0.50;;;14.90;65.60;;;;;;5993570;29;20077;-71
2022/04/08 04:59:41;;;;;;;2.30;1.10;;;14.90;65.50;;;;;;5996587;29;20038;-71
2022/04/08 05:02:42;;;;;;;2.50;1.17;;;15.00;65.60;;;;;;6008139;29;20437;-72
2022/04/08 05:05:43;;;;;;;3.85;0.80;;;15.00;65.50;;;;;;6011769;29;20046;-71
2022/04/08 05:08:43;;;;;;;0.70;0.50;;;15.00;65.50;;;;;;5989338;29;20480;-71
2022/04/08 05:11:44;;;;;;;1.67;0.80;;;15.00;65.40;;;;;;6001894;29;20494;-72
2022/04/08 05:14:45;;;;;;;3.10;1.02;;;14.90;65.20;;;;;;5991290;29;20079;-71
2022/04/08 05:17:46;;;;;;;1.50;0.70;;;15.00;65.20;;;;;;5992252;29;20154;-71
2022/04/08 05:20:52;;;;;;;1.52;0.80;;;15.00;65.10;;;;;;5993239;29;20457;-71
2022/04/08 05:23:52;;;;;;;0.57;0.57;;;15.00;65.10;;;;;;6007276;29;20121;-71
2022/04/08 05:26:53;;;;;;;1.67;0.57;;;15.10;65.10;;;;;;6006340;29;20364;-72
2022/04/08 05:29:54;;;;;;;1.05;0.47;;;15.10;65.00;;;;;;6006569;29;20049;-72
2022/04/08 05:32:56;;;;;;;0.50;0.50;;;15.10;64.80;;;;;;5989019;29;20046;-71
2022/04/08 05:35:56;;;;;;;1.70;0.65;;;15.10;64.80;;;;;;6004625;29;20034;-71
2022/04/08 05:38:57;;;;;;;0.70;0.63;;;15.10;64.80;;;;;;5988296;29;20053;-72
2022/04/08 05:41:58;;;;;;;0.95;0.50;;;15.10;64.80;;;;;;5984934;29;20045;-71
2022/04/08 05:44:59;;;;;;;2.03;0.88;;;15.20;64.80;;;;;;5984544;29;20117;-71
2022/04/08 05:48:04;;;;;;;1.05;0.77;;;15.20;64.70;;;;;;5997999;29;20172;-71
2022/04/08 05:51:05;;;;;;;1.52;0.63;;;15.20;64.70;;;;;;5999326;29;20045;-72
2022/04/08 05:54:06;;;;;;;0.50;0.50;;;15.20;64.80;;;;;;6003625;29;20122;-71
2022/04/08 05:57:07;;;;;;;2.65;0.70;;;15.30;64.70;;;;;;6006246;29;20038;-71
2022/04/08 06:00:10;;;;;;;2.42;1.00;;;15.30;64.60;;;;;;5974845;29;20053;-71
2022/04/08 06:03:11;;;;;;;4.75;0.85;;;15.30;64.60;;;;;;6004580;29;20489;-71
2022/04/08 06:06:12;;;;;;;1.15;0.80;;;15.30;64.60;;;;;;5987567;29;20121;-71
2022/04/08 06:09:13;;;;;;;2.17;0.95;;;15.30;64.70;;;;;;6003863;29;20054;-71
2022/04/08 06:12:13;;;;;;;1.40;0.68;;;15.30;64.70;;;;;;6003325;29;20034;-71
2022/04/08 06:15:15;;;;;;;1.77;0.85;;;15.30;64.70;;;;;;6000213;29;20038;-71
2022/04/08 06:18:18;;;;;;;1.05;0.80;;;15.30;64.70;;;;;;6003371;29;20038;-73
2022/04/08 06:21:19;;;;;;;1.52;1.00;;;15.40;65.00;;;;;;6004189;29;20457;-72
2022/04/08 06:24:20;;;;;;;7.07;1.73;;;15.40;65.00;;;;;;6003619;29;20107;-72
2022/04/08 06:27:20;;;;;;;2.97;1.33;;;15.50;64.90;;;;;;5987937;29;20026;-73
2022/04/08 06:30:21;;;;;;;4.05;1.67;;;15.50;65.00;;;;;;5990047;29;20042;-73
2022/04/08 06:33:23;;;;;;;4.78;1.77;;;15.50;65.00;;;;;;5998445;29;20073;-73
2022/04/08 06:36:25;;;;;;;4.15;1.63;;;15.50;65.00;;;;;;5972552;29;20061;-72
2022/04/08 06:39:26;;;;;;;2.30;1.50;;;15.60;65.00;;;;;;5983762;29;20053;-71
2022/04/08 06:42:27;;;;;;;3.38;1.67;;;15.50;64.90;;;;;;6003946;29;20038;-71
2022/04/08 06:45:28;;;;;;;2.42;1.20;;;15.50;65.00;;;;;;5982399;29;20428;-72
2022/04/08 06:48:29;;;;;;;2.75;1.60;;;15.50;65.10;;;;;;5999018;29;20038;-73
2022/04/08 06:51:30;;;;;;;1.52;1.30;;;15.50;65.10;;;;;;5989700;29;20102;-72
2022/04/08 06:54:32;;;;;;;3.30;2.15;;;15.50;65.20;;;;;;6003894;29;20117;-70
2022/04/08 06:57:33;;;;;;;11.52;1.50;;;15.40;65.30;;;;;;5972689;29;20038;-72
2022/04/08 07:00:34;;;;;;;5.47;1.40;;;15.50;65.50;;;;;;5975239;29;20436;-71
2022/04/08 07:03:35;;;;;;;3.92;0.90;;;15.40;65.50;;;;;;6002853;29;20050;-72
2022/04/08 07:06:36;;;;;;;5.82;1.00;;;15.50;65.50;;;;;;6001942;29;20354;-72
2022/04/08 07:09:36;;;;;;;3.35;1.30;;;15.60;65.50;;;;;;6003586;29;20145;-72
2022/04/08 07:12:38;;;;;;;1.52;0.98;;;15.60;65.20;;;;;;5972206;29;20057;-71
2022/04/08 07:15:38;;;;;;;3.83;0.93;;;15.70;65.10;;;;;;5985998;29;20053;-72
2022/04/08 07:18:39;;;;;;;5.60;1.30;;;15.70;64.80;;;;;;5986456;29;20049;-72
2022/04/08 07:21:40;;;;;;;3.25;1.00;;;15.70;64.60;;;;;;6002974;29;20038;-73
2022/04/08 07:24:41;;;;;;;3.05;0.88;;;15.70;64.40;;;;;;6001427;29;20086;-72
2022/04/08 07:27:50;;;;;;;1.40;0.70;;;15.80;64.30;;;;;;5988622;29;20057;-72
2022/04/08 07:30:51;;;;;;;2.30;1.05;;;15.80;64.20;;;;;;6002725;29;20406;-72
2022/04/08 07:33:52;;;;;;;1.98;0.88;;;15.80;64.00;;;;;;5986295;29;20042;-72
2022/04/08 07:36:53;;;;;;;1.67;0.80;;;15.80;63.90;;;;;;6003312;29;20116;-72
2022/04/08 07:39:54;;;;;;;5.07;1.70;;;15.90;63.80;;;;;;6003305;29;20081;-72
2022/04/08 07:42:55;;;;;;;5.32;1.50;;;15.90;63.80;;;;;;6001517;29;20065;-73
2022/04/08 07:45:56;;;;;;;3.15;1.70;;;15.90;63.80;;;;;;5984895;29;20318;-70
2022/04/08 07:48:57;;;;;;;8.70;1.98;;;15.90;64.00;;;;;;6002815;29;20090;-72
2022/04/08 07:51:58;;;;;;;4.95;1.80;;;15.90;64.30;;;;;;6003804;29;20452;-71
2022/04/08 07:54:59;;;;;;;3.50;1.45;;;15.90;64.50;;;;;;5985960;29;20038;-72
2022/04/08 07:58:00;;;;;;;2.83;1.38;;;15.90;64.50;;;;;;5985030;29;20160;-71
2022/04/08 08:01:01;;;;;;;7.28;1.52;;;15.90;64.50;;;;;;6000648;29;20057;-71
2022/04/08 08:04:02;;;;;;;3.22;1.17;;;15.90;64.40;;;;;;5997477;29;20054;-71
2022/04/08 08:07:03;;;;;;;6.28;2.50;;;16.00;64.20;;;;;;5986860;29;20045;-72
2022/04/08 08:10:05;;;;;;;12.18;3.97;;;16.00;64.10;;;;;;5983417;29;20057;-71
2022/04/08 08:13:06;;;;;;;9.32;3.45;;;16.00;64.00;;;;;;6002611;29;20360;-71
2022/04/08 08:16:07;;;;;;;12.55;3.92;;;16.00;64.10;;;;;;6000843;29;20069;-71
2022/04/08 08:19:11;;;;;;;6.05;2.70;;;16.00;64.30;;;;;;6016298;29;20045;-71
2022/04/08 08:22:11;;;;;;;5.70;1.67;;;16.00;64.50;;;;;;6003432;29;20464;-72
2022/04/08 08:25:13;;;;;;;5.30;2.45;;;16.00;64.50;;;;;;6018211;29;20091;-72
2022/04/08 08:28:14;;;;;;;5.25;2.78;;;16.10;64.50;;;;;;5986783;29;20045;-72
2022/04/08 08:31:16;;;;;;;8.43;2.63;;;16.10;64.40;;;;;;6001905;29;20034;-72
2022/04/08 08:34:16;;;;;;;6.63;2.50;;;16.10;64.60;;;;;;6004901;29;20046;-71
2022/04/08 08:37:19;;;;;;;4.25;2.42;;;16.10;64.60;;;;;;6016587;29;20090;-72
2022/04/08 08:40:20;;;;;;;9.32;3.50;;;16.20;64.70;;;;;;6014384;29;20046;-71
2022/04/08 08:43:21;;;;;;;7.78;2.90;;;16.20;64.60;;;;;;6000780;29;20064;-72
2022/04/08 08:46:22;;;;;;;7.97;3.45;;;16.20;64.30;;;;;;6018913;29;20037;-72
2022/04/08 08:49:29;;;;;;;10.38;4.25;;;16.30;64.30;;;;;;6003115;29;20041;-72
2022/04/08 08:52:31;;;;;;;5.78;1.95;;;16.30;64.40;;;;;;5999746;29;20049;-72
2022/04/08 08:55:32;;;;;;;5.72;2.78;;;16.40;64.20;;;;;;6018337;29;20045;-72
2022/04/08 08:58:37;;;;;;;3.65;1.85;;;16.50;63.80;;;;;;6001629;29;20038;-72
2022/04/08 09:01:38;;;;;;;20.77;9.30;;;16.60;63.70;;;;;;6019296;29;20137;-72
2022/04/08 09:04:42;;;;;;;13.05;4.18;;;16.70;63.40;;;;;;6002599;29;20475;-73
2022/04/08 09:08:05;;;;;;;4.43;1.73;;;16.90;63.10;;;;;;5987729;29;20373;-73
2022/04/08 09:11:06;;;;;;;7.88;3.00;;;17.10;62.60;;;;;;6004605;29;20030;-73
2022/04/08 09:14:07;;;;;;;8.02;2.55;;;17.20;62.00;;;;;;6003973;29;20380;-72
2022/04/08 09:17:09;;;;;;;16.17;5.05;;;17.30;61.80;;;;;;5991821;29;20045;-72
2022/04/08 09:20:11;;;;;;;9.38;4.78;;;17.30;61.80;;;;;;6005518;29;20513;-73
2022/04/08 09:23:14;;;;;;;16.92;3.88;;;17.40;61.80;;;;;;5984733;29;20046;-71
2022/04/08 09:26:15;;;;;;;10.68;4.93;;;17.50;61.90;;;;;;6003117;29;20066;-71
2022/04/08 09:29:19;;;;;;;11.50;4.43;;;17.40;62.00;;;;;;5999248;29;20042;-71
2022/04/08 09:32:22;;;;;;;11.88;4.93;;;17.40;62.10;;;;;;5997286;29;20088;-73
2022/04/08 09:35:24;;;;;;;10.77;4.22;;;17.40;62.40;;;;;;5993026;29;20061;-72
2022/04/08 09:38:32;;;;;;;11.68;5.22;;;17.30;62.60;;;;;;5987721;29;20052;-72
2022/04/08 09:41:40;;;;;;;9.48;4.85;;;17.30;62.80;;;;;;6002859;29;20052;-72
2022/04/08 09:44:41;;;;;;;11.65;5.47;;;17.40;63.70;;;;;;5987511;29;20488;-72
2022/04/08 09:47:42;;;;;;;11.80;4.30;;;17.40;62.80;;;;;;6005232;29;20076;-73
2022/04/08 09:50:45;;;;;;;10.77;4.47;;;17.50;62.70;;;;;;5980624;29;20039;-71
2022/04/08 09:53:55;;;;;;;12.23;5.30;;;17.60;62.80;;;;;;6005928;29;20030;-72
2022/04/08 09:56:58;;;;;;;15.77;8.05;;;17.60;62.60;;;;;;6001282;29;20034;-73
2022/04/08 10:00:02;;;;;;;20.98;9.35;;;17.80;62.30;;;;;;5989529;29;20042;-73
2022/04/08 10:03:06;;;;;;;18.40;7.25;;;17.70;61.80;;;;;;6003000;29;20034;-74
2022/04/08 10:06:08;;;;;;;10.70;4.80;;;17.70;61.90;;;;;;5977361;29;20030;-73
2022/04/08 10:09:14;;;;;;;11.85;5.25;;;17.70;62.20;;;;;;6010188;29;20066;-73
2022/04/08 10:12:50;;;;;;;11.38;5.13;;;17.80;62.20;;;;;;6017461;29;20038;-72
2022/04/08 10:16:12;;;;;;;11.70;4.85;;;17.90;62.20;;;;;;6020158;29;20084;-73
2022/04/08 10:19:14;;;;;;;10.05;4.97;;;18.00;62.00;;;;;;5986368;29;20044;-73
2022/04/08 10:22:17;;;;;;;11.98;3.80;;;18.00;61.80;;;;;;6006140;29;20371;-73
2022/04/08 10:25:19;;;;;;;7.88;3.58;;;18.10;61.60;;;;;;6001757;29;20052;-71
2022/04/08 10:28:20;;;;;;;6.80;3.20;;;18.20;61.20;;;;;;6018369;29;20041;-71
2022/04/08 10:31:25;;;;;;;7.53;3.20;;;18.20;61.00;;;;;;6018873;29;20045;-71
2022/04/08 10:34:26;;;;;;;8.82;3.10;;;18.20;60.50;;;;;;6001581;29;20111;-73
2022/04/08 10:37:27;;;;;;;12.63;4.40;;;18.20;61.00;;;;;;6018392;29;20117;-72
2022/04/08 10:40:32;;;;;;;8.55;3.03;;;18.20;60.00;;;;;;5986502;29;20041;-72
2022/04/08 10:43:45;;;;;;;9.32;3.88;;;18.20;59.90;;;;;;5997821;29;20057;-71
2022/04/08 10:46:52;;;;;;;10.20;4.03;;;18.20;59.80;;;;;;6016023;29;20045;-72
2022/04/08 10:50:00;;;;;;;7.72;3.60;;;18.30;59.70;;;;;;6003549;29;20047;-72
2022/04/08 10:53:11;;;;;;;5.07;2.40;;;18.30;59.60;;;;;;6001071;29;20106;-72
2022/04/08 10:56:14;;;;;;;11.57;4.30;;;18.30;59.70;;;;;;5998198;29;20044;-71
2022/04/08 10:59:25;;;;;;;25.50;7.15;;;18.30;59.40;;;;;;5984979;29;20212;-72
2022/04/08 11:02:40;;;;;;;7.53;2.13;;;18.20;59.30;;;;;;6015282;29;20481;-71
2022/04/08 11:05:41;;;;;;;6.22;1.92;;;18.30;59.20;;;;;;6015307;29;20151;-72
2022/04/08 11:08:43;;;;;;;4.93;1.65;;;18.30;59.00;;;;;;5982457;29;20071;-72
2022/04/08 11:11:46;;;;;;;2.58;1.42;;;18.30;58.80;;;;;;6002399;29;20114;-72
2022/04/08 11:15:02;;;;;;;7.43;2.15;;;18.20;58.80;;;;;;6016045;29;20045;-73
2022/04/08 11:18:06;;;;;;;3.78;1.88;;;18.20;58.80;;;;;;6000595;29;20038;-72
2022/04/08 11:21:19;;;;;;;7.93;3.03;;;18.20;58.80;;;;;;5987089;29;20460;-72
2022/04/08 11:24:20;;;;;;;6.70;2.50;;;18.20;58.70;;;;;;6001513;29;20193;-72
2022/04/08 11:27:22;;;;;;;15.23;5.57;;;18.10;58.90;;;;;;6000052;29;20041;-71
2022/04/08 11:30:24;;;;;;;13.18;4.10;;;18.10;59.10;;;;;;6003252;29;20464;-72
2022/04/08 11:33:26;;;;;;;14.98;5.05;;;18.10;59.30;;;;;;6016190;29;20122;-71
2022/04/08 11:36:27;;;;;;;13.18;3.80;;;18.00;59.40;;;;;;6017875;29;20034;-71
2022/04/08 11:39:30;;;;;;;18.08;8.02;;;18.00;59.60;;;;;;6018772;29;20137;-72
2022/04/08 11:42:33;;;;;;;14.35;7.45;;;17.90;59.90;;;;;;6002312;29;20033;-72
2022/04/08 11:45:34;;;;;;;13.95;6.10;;;17.80;60.40;;;;;;6002678;29;20042;-72
2022/04/08 11:48:38;;;;;;;10.60;5.35;;;17.70;60.80;;;;;;6001197;29;20439;-72
2022/04/08 11:51:39;;;;;;;14.70;5.82;;;17.70;61.00;;;;;;6003696;29;20460;-72
2022/04/08 11:54:40;;;;;;;16.08;5.80;;;17.60;61.30;;;;;;6004089;29;20069;-72
2022/04/08 11:57:42;;;;;;;12.63;6.57;;;17.60;61.70;;;;;;6004545;29;20110;-71
2022/04/08 12:00:43;;;;;;;14.02;5.70;;;17.50;61.90;;;;;;6027095;29;20048;-72
2022/04/08 12:03:44;;;;;;;17.52;5.65;;;17.50;62.10;;;;;;6014528;29;20033;-71
2022/04/08 12:06:47;;;;;;;23.35;10.18;;;17.50;62.30;;;;;;6010711;29;20049;-71
2022/04/08 12:09:48;;;;;;;14.98;5.03;;;17.50;62.40;;;;;;6000226;29;20049;-72
2022/04/08 12:12:50;;;;;;;9.63;4.60;;;17.50;62.40;;;;;;5993434;29;20038;-72
2022/04/08 12:15:58;;;;;;;13.43;6.00;;;17.50;62.30;;;;;;5994602;29;20121;-72
2022/04/08 12:19:00;;;;;;;13.75;6.50;;;17.60;62.40;;;;;;5993017;29;20034;-72
2022/04/08 12:22:07;;;;;;;12.50;5.45;;;17.60;62.40;;;;;;5994948;29;20062;-71
2022/04/08 12:25:08;;;;;;;20.13;5.63;;;17.70;62.50;;;;;;5992895;29;20035;-72
2022/04/08 12:28:11;;;;;;;19.45;6.35;;;17.70;62.50;;;;;;5994728;29;20099;-71
2022/04/08 12:31:17;;;;;;;8.98;4.50;;;17.70;62.60;;;;;;5975946;29;20063;-74
2022/04/08 12:34:19;;;;;;;13.88;4.57;;;17.70;62.70;;;;;;5994130;29;20472;-74
2022/04/08 12:37:19;;;;;;;22.48;8.48;;;17.80;62.70;;;;;;5996886;29;20046;-72
2022/04/08 12:40:20;;;;;;;15.38;7.57;;;17.80;62.60;;;;;;5994168;29;20104;-72
2022/04/08 12:43:21;;;;;;;12.52;6.45;;;17.80;62.50;;;;;;5996403;29;20039;-72
2022/04/08 12:46:22;;;;;;;12.75;6.97;;;17.70;62.50;;;;;;6001520;29;20106;-72
2022/04/08 12:49:23;;;;;;;16.77;7.15;;;17.70;62.50;;;;;;5998411;29;20139;-72
2022/04/08 12:52:24;;;;;;;16.75;9.20;;;17.70;62.70;;;;;;5996771;29;20049;-70
2022/04/08 12:55:25;;;;;;;12.35;6.15;;;17.70;62.90;;;;;;6001041;29;20358;-71
2022/04/08 12:58:28;;;;;;;29.77;10.82;;;17.70;62.90;;;;;;6004372;29;20390;-71
2022/04/08 13:01:29;;;;;;;39.60;18.50;;;17.80;63.00;;;;;;5997114;29;20034;-71
2022/04/08 13:04:31;;;;;;;27.27;12.30;;;17.80;62.90;;;;;;5999046;29;21391;-72
2022/04/08 13:07:32;;;;;;;25.70;10.95;;;17.60;62.60;;;;;;5998660;29;20037;-72
2022/04/08 13:10:33;;;;;;;18.25;8.18;;;17.80;62.70;;;;;;5998545;29;20061;-72
2022/04/08 13:13:34;;;;;;;13.38;6.13;;;17.80;62.70;;;;;;5999253;29;20037;-72
2022/04/08 13:16:35;;;;;;;48.03;17.05;;;17.90;62.70;;;;;;5998160;29;20042;-73
2022/04/08 13:19:36;;;;;;;13.85;5.93;;;17.90;62.40;;;;;;5982515;29;20484;-73
2022/04/08 13:22:37;;;;;;;10.50;6.38;;;17.80;62.40;;;;;;5998921;29;20060;-72
2022/04/08 13:25:38;;;;;;;17.60;7.18;;;17.70;62.60;;;;;;5998684;29;20041;-73
2022/04/08 13:28:39;;;;;;;12.50;6.25;;;17.70;62.80;;;;;;5983255;29;20421;-73
2022/04/08 13:31:40;;;;;;;12.18;6.05;;;17.60;62.90;;;;;;5998636;29;20046;-73
2022/04/08 13:34:41;;;;;;;12.25;6.50;;;17.60;63.10;;;;;;5997819;29;20121;-72
2022/04/08 13:37:42;;;;;;;11.27;5.65;;;17.70;63.20;;;;;;5999363;29;20041;-72
2022/04/08 13:40:42;;;;;;;12.90;6.95;;;17.70;63.10;;;;;;5993710;29;20042;-72
2022/04/08 13:43:44;;;;;;;22.17;7.25;;;17.70;63.00;;;;;;5997678;29;20046;-72
2022/04/08 13:46:45;;;;;;;14.68;7.60;;;17.70;63.00;;;;;;5997555;29;20125;-73
2022/04/08 13:49:46;;;;;;;15.18;6.63;;;17.70;63.00;;;;;;5998911;29;20042;-73
2022/04/08 13:52:47;;;;;;;13.73;6.78;;;17.60;63.20;;;;;;5997214;29;20168;-72
2022/04/08 13:55:48;;;;;;;12.90;6.20;;;17.60;63.30;;;;;;5997391;29;20058;-72
2022/04/08 13:58:49;;;;;;;11.32;6.80;;;17.60;63.30;;;;;;5996134;29;20038;-72
2022/04/08 14:01:50;;;;;;;11.43;6.20;;;17.60;63.40;;;;;;5998919;29;20050;-71
2022/04/08 14:04:51;;;;;;;10.40;6.20;;;17.70;63.50;;;;;;5995792;29;20065;-72
2022/04/08 14:07:52;;;;;;;18.20;7.32;;;17.70;63.20;;;;;;5997256;29;20383;-72
2022/04/08 14:10:53;;;;;;;12.55;6.50;;;17.70;63.20;;;;;;6021953;29;20049;-72
2022/04/08 14:13:55;;;;;;;13.27;7.35;;;17.80;63.20;;;;;;6005519;29;20038;-72
2022/04/08 14:16:56;;;;;;;13.57;7.40;;;17.90;63.30;;;;;;6003056;29;20368;-72
2022/04/08 14:19:57;;;;;;;12.60;6.63;;;18.10;63.10;;;;;;6004290;29;20049;-72
2022/04/08 14:22:58;;;;;;;21.40;8.80;;;18.30;62.60;;;;;;6024146;29;20056;-72
2022/04/08 14:25:59;;;;;;;21.13;9.30;;;18.40;62.10;;;;;;6005588;29;20081;-73
2022/04/08 14:29:00;;;;;;;15.93;8.10;;;18.60;61.80;;;;;;6006185;29;20113;-71
2022/04/08 14:32:01;;;;;;;15.15;8.48;;;18.90;61.60;;;;;;6005756;29;20091;-71
2022/04/08 14:35:02;;;;;;;19.73;8.10;;;19.20;61.00;;;;;;6003185;29;20041;-71
2022/04/08 14:38:03;;;;;;;15.05;7.63;;;19.50;60.10;;;;;;6022505;29;20038;-71
2022/04/08 14:41:07;;;;;;;19.05;9.00;;;19.70;59.60;;;;;;6018651;29;20041;-72
2022/04/08 14:44:10;;;;;;;19.00;8.57;;;19.70;59.20;;;;;;6001940;29;20045;-74
2022/04/08 14:47:11;;;;;;;14.07;8.38;;;19.60;59.20;;;;;;6022291;29;20037;-72
2022/04/08 14:50:12;;;;;;;14.68;7.50;;;19.40;59.40;;;;;;6004250;29;20558;-71
2022/04/08 14:53:13;;;;;;;14.68;8.07;;;19.30;59.80;;;;;;6021462;29;20041;-73
2022/04/08 14:56:15;;;;;;;16.13;7.85;;;19.20;59.90;;;;;;6020470;29;20101;-72
2022/04/08 14:59:17;;;;;;;13.15;6.78;;;19.10;59.90;;;;;;5998061;29;20045;-72
2022/04/08 15:02:18;;;;;;;13.88;6.43;;;19.00;59.90;;;;;;6014805;29;20101;-71
2022/04/08 15:05:19;;;;;;;12.38;7.15;;;18.90;60.10;;;;;;6003133;29;20427;-73
2022/04/08 15:08:21;;;;;;;16.65;9.30;;;18.80;60.30;;;;;;6003266;29;20057;-73
2022/04/08 15:11:22;;;;;;;11.68;6.72;;;18.80;60.50;;;;;;6004974;29;20048;-71
2022/04/08 15:14:24;;;;;;;16.30;8.02;;;18.80;60.50;;;;;;5998262;29;20455;-70
2022/04/08 15:17:25;;;;;;;18.35;9.82;;;18.70;60.70;;;;;;6018140;29;20367;-70
2022/04/08 15:20:26;;;;;;;15.65;8.60;;;18.60;61.00;;;;;;6014369;29;20141;-71
2022/04/08 15:23:26;;;;;;;15.20;8.07;;;18.60;61.40;;;;;;5998982;29;20128;-71
2022/04/08 15:26:27;;;;;;;17.63;8.25;;;18.60;61.60;;;;;;5995714;29;20094;-71
2022/04/08 15:29:28;;;;;;;17.42;9.77;;;18.60;61.40;;;;;;5998754;29;20044;-71
2022/04/08 15:32:29;;;;;;;19.08;7.60;;;18.50;61.40;;;;;;5999020;29;20061;-70
2022/04/08 15:35:35;;;;;;;11.20;6.10;;;18.40;61.50;;;;;;5997357;29;20098;-70
2022/04/08 15:38:35;;;;;;;14.10;7.65;;;18.40;61.80;;;;;;5993874;29;20050;-70
2022/04/08 15:41:37;;;;;;;31.05;14.98;;;18.30;62.00;;;;;;5999515;29;20087;-70